sensor_id;sensor_type;location;lat;lon;timestamp;pressure;altitude;pressure_sealevel;temperature
42673;BMP280;28284;46.514;30.724;2023-05-10T00:01:45;101477.03;;;14.82
42673;BMP280;28284;46.514;30.724;2023-05-10T00:04:10;101470.00;;;14.81
42673;BMP280;28284;46.514;30.724;2023-05-10T00:06:36;101470.00;;;14.81
42673;BMP280;28284;46.514;30.724;2023-05-10T00:09:01;101471.97;;;14.80
42673;BMP280;28284;46.514;30.724;2023-05-10T00:11:26;101464.53;;;14.81
42673;BMP280;28284;46.514;30.724;2023-05-10T00:13:52;101466.13;;;14.82
42673;BMP280;28284;46.514;30.724;2023-05-10T00:16:17;101467.28;;;14.81
42673;BMP280;28284;46.514;30.724;2023-05-10T00:18:42;101457.56;;;14.80
42673;BMP280;28284;46.514;30.724;2023-05-10T00:21:08;101454.41;;;14.78
42673;BMP280;28284;46.514;30.724;2023-05-10T00:23:33;101465.69;;;14.76
42673;BMP280;28284;46.514;30.724;2023-05-10T00:26:01;101457.50;;;14.76
42673;BMP280;28284;46.514;30.724;2023-05-10T00:28:30;101462.19;;;14.76
42673;BMP280;28284;46.514;30.724;2023-05-10T00:30:55;101459.44;;;14.72
42673;BMP280;28284;46.514;30.724;2023-05-10T00:33:21;101460.19;;;14.69
42673;BMP280;28284;46.514;30.724;2023-05-10T00:35:46;101453.97;;;14.69
42673;BMP280;28284;46.514;30.724;2023-05-10T00:38:11;101451.63;;;14.67
42673;BMP280;28284;46.514;30.724;2023-05-10T00:40:37;101459.41;;;14.65
42673;BMP280;28284;46.514;30.724;2023-05-10T00:43:02;101464.47;;;14.67
42673;BMP280;28284;46.514;30.724;2023-05-10T00:45:28;101464.06;;;14.65
42673;BMP280;28284;46.514;30.724;2023-05-10T00:47:54;101467.56;;;14.62
42673;BMP280;28284;46.514;30.724;2023-05-10T00:50:21;101464.44;;;14.60
42673;BMP280;28284;46.514;30.724;2023-05-10T00:52:47;101460.13;;;14.59
42673;BMP280;28284;46.514;30.724;2023-05-10T00:55:12;101458.97;;;14.60
42673;BMP280;28284;46.514;30.724;2023-05-10T00:57:38;101465.22;;;14.61
42673;BMP280;28284;46.514;30.724;2023-05-10T01:00:03;101460.13;;;14.59
42673;BMP280;28284;46.514;30.724;2023-05-10T01:02:29;101459.34;;;14.59
42673;BMP280;28284;46.514;30.724;2023-05-10T01:04:54;101457.81;;;14.58
42673;BMP280;28284;46.514;30.724;2023-05-10T01:07:20;101456.25;;;14.57
42673;BMP280;28284;46.514;30.724;2023-05-10T01:09:45;101456.19;;;14.53
42673;BMP280;28284;46.514;30.724;2023-05-10T01:12:11;101455.41;;;14.49
42673;BMP280;28284;46.514;30.724;2023-05-10T01:14:36;101453.47;;;14.46
42673;BMP280;28284;46.514;30.724;2023-05-10T01:17:02;101458.09;;;14.42
42673;BMP280;28284;46.514;30.724;2023-05-10T01:19:29;101460.44;;;14.40
42673;BMP280;28284;46.514;30.724;2023-05-10T01:29:43;101453.66;;;14.24
42673;BMP280;28284;46.514;30.724;2023-05-10T01:37:11;101453.28;;;14.22
42673;BMP280;28284;46.514;30.724;2023-05-10T01:42:05;101447.78;;;14.18
42673;BMP280;28284;46.514;30.724;2023-05-10T01:47:09;101441.94;;;14.16
42673;BMP280;28284;46.514;30.724;2023-05-10T01:49:43;101446.97;;;14.18
42673;BMP280;28284;46.514;30.724;2023-05-10T01:52:12;101446.25;;;14.17
42673;BMP280;28284;46.514;30.724;2023-05-10T01:54:41;101441.94;;;14.16
42673;BMP280;28284;46.514;30.724;2023-05-10T01:57:07;101436.50;;;14.16
42673;BMP280;28284;46.514;30.724;2023-05-10T01:59:34;101434.13;;;14.15
42673;BMP280;28284;46.514;30.724;2023-05-10T02:02:05;101442.69;;;14.13
42673;BMP280;28284;46.514;30.724;2023-05-10T02:04:31;101441.53;;;14.14
42673;BMP280;28284;46.514;30.724;2023-05-10T02:06:58;101438.44;;;14.16
42673;BMP280;28284;46.514;30.724;2023-05-10T02:09:23;101442.72;;;14.17
42673;BMP280;28284;46.514;30.724;2023-05-10T02:11:50;101429.84;;;14.14
42673;BMP280;28284;46.514;30.724;2023-05-10T02:14:16;101439.22;;;14.16
42673;BMP280;28284;46.514;30.724;2023-05-10T02:16:43;101434.53;;;14.17
42673;BMP280;28284;46.514;30.724;2023-05-10T02:19:10;101441.19;;;14.19
42673;BMP280;28284;46.514;30.724;2023-05-10T02:21:37;101437.66;;;14.19
42673;BMP280;28284;46.514;30.724;2023-05-10T02:24:02;101433.00;;;14.19
42673;BMP280;28284;46.514;30.724;2023-05-10T02:26:28;101442.34;;;14.18
42673;BMP280;28284;46.514;30.724;2023-05-10T02:28:54;101436.09;;;14.18
42673;BMP280;28284;46.514;30.724;2023-05-10T02:31:21;101438.81;;;14.18
42673;BMP280;28284;46.514;30.724;2023-05-10T02:33:46;101443.53;;;14.17
42673;BMP280;28284;46.514;30.724;2023-05-10T02:36:13;101440.38;;;14.19
42673;BMP280;28284;46.514;30.724;2023-05-10T02:38:38;101447.44;;;14.20
42673;BMP280;28284;46.514;30.724;2023-05-10T02:41:04;101448.59;;;14.22
42673;BMP280;28284;46.514;30.724;2023-05-10T02:43:31;101448.25;;;14.27
42673;BMP280;28284;46.514;30.724;2023-05-10T02:45:57;101440.09;;;14.31
42673;BMP280;28284;46.514;30.724;2023-05-10T02:48:22;101445.34;;;14.57
42673;BMP280;28284;46.514;30.724;2023-05-10T02:50:48;101446.31;;;14.95
42673;BMP280;28284;46.514;30.724;2023-05-10T02:53:18;101445.22;;;15.21
42673;BMP280;28284;46.514;30.724;2023-05-10T02:55:46;101445.63;;;15.26
42673;BMP280;28284;46.514;30.724;2023-05-10T02:58:14;101455.41;;;15.37
42673;BMP280;28284;46.514;30.724;2023-05-10T03:00:39;101453.50;;;15.45
42673;BMP280;28284;46.514;30.724;2023-05-10T03:03:04;101458.19;;;15.51
42673;BMP280;28284;46.514;30.724;2023-05-10T03:05:30;101464.03;;;15.53
42673;BMP280;28284;46.514;30.724;2023-05-10T03:07:55;101454.66;;;15.51
42673;BMP280;28284;46.514;30.724;2023-05-10T03:10:22;101446.88;;;15.49
42673;BMP280;28284;46.514;30.724;2023-05-10T03:13:37;101449.97;;;15.44
42673;BMP280;28284;46.514;30.724;2023-05-10T03:18:23;101450.72;;;15.41
42673;BMP280;28284;46.514;30.724;2023-05-10T03:20:56;101440.22;;;15.40
42673;BMP280;28284;46.514;30.724;2023-05-10T03:23:43;101453.44;;;15.41
42673;BMP280;28284;46.514;30.724;2023-05-10T03:26:09;101454.25;;;15.45
42673;BMP280;28284;46.514;30.724;2023-05-10T03:28:35;101461.69;;;15.48
42673;BMP280;28284;46.514;30.724;2023-05-10T03:31:00;101459.34;;;15.50
42673;BMP280;28284;46.514;30.724;2023-05-10T03:33:26;101460.50;;;15.53
42673;BMP280;28284;46.514;30.724;2023-05-10T03:35:51;101456.25;;;15.55
42673;BMP280;28284;46.514;30.724;2023-05-10T03:38:17;101458.59;;;15.60
42673;BMP280;28284;46.514;30.724;2023-05-10T03:40:42;101472.66;;;15.66
42673;BMP280;28284;46.514;30.724;2023-05-10T03:43:07;101460.16;;;15.72
42673;BMP280;28284;46.514;30.724;2023-05-10T03:45:33;101460.56;;;15.81
42673;BMP280;28284;46.514;30.724;2023-05-10T03:47:58;101460.97;;;15.86
42673;BMP280;28284;46.514;30.724;2023-05-10T03:50:23;101461.34;;;15.95
42673;BMP280;28284;46.514;30.724;2023-05-10T03:52:49;101473.44;;;16.08
42673;BMP280;28284;46.514;30.724;2023-05-10T03:55:14;101466.41;;;16.21
42673;BMP280;28284;46.514;30.724;2023-05-10T03:57:40;101474.59;;;16.38
42673;BMP280;28284;46.514;30.724;2023-05-10T04:00:05;101481.16;;;16.62
42673;BMP280;28284;46.514;30.724;2023-05-10T04:02:30;101491.63;;;16.87
42673;BMP280;28284;46.514;30.724;2023-05-10T04:04:56;101492.63;;;17.21
42673;BMP280;28284;46.514;30.724;2023-05-10T04:07:21;101480.75;;;17.52
42673;BMP280;28284;46.514;30.724;2023-05-10T04:09:47;101495.34;;;17.86
42673;BMP280;28284;46.514;30.724;2023-05-10T04:12:12;101484.72;;;18.35
42673;BMP280;28284;46.514;30.724;2023-05-10T04:14:37;101488.31;;;19.21
42673;BMP280;28284;46.514;30.724;2023-05-10T04:17:02;101494.69;;;19.67
42673;BMP280;28284;46.514;30.724;2023-05-10T04:19:31;101500.41;;;19.76
42673;BMP280;28284;46.514;30.724;2023-05-10T04:21:56;101502.69;;;19.81
42673;BMP280;28284;46.514;30.724;2023-05-10T04:24:22;101503.72;;;20.13
42673;BMP280;28284;46.514;30.724;2023-05-10T04:26:47;101507.78;;;20.67
42673;BMP280;28284;46.514;30.724;2023-05-10T04:29:13;101517.53;;;21.07
42673;BMP280;28284;46.514;30.724;2023-05-10T04:31:38;101519.78;;;21.47
42673;BMP280;28284;46.514;30.724;2023-05-10T04:34:04;101513.31;;;21.97
42673;BMP280;28284;46.514;30.724;2023-05-10T04:36:29;101518.22;;;22.34
42673;BMP280;28284;46.514;30.724;2023-05-10T04:38:54;101520.53;;;22.64
42673;BMP280;28284;46.514;30.724;2023-05-10T04:41:19;101517.94;;;22.97
42673;BMP280;28284;46.514;30.724;2023-05-10T04:43:45;101524.31;;;23.44
42673;BMP280;28284;46.514;30.724;2023-05-10T04:46:11;101521.22;;;24.01
42673;BMP280;28284;46.514;30.724;2023-05-10T04:48:36;101524.09;;;24.61
42673;BMP280;28284;46.514;30.724;2023-05-10T04:51:01;101532.53;;;25.18
42673;BMP280;28284;46.514;30.724;2023-05-10T04:53:28;101531.84;;;25.62
42673;BMP280;28284;46.514;30.724;2023-05-10T04:55:54;101538.63;;;25.97
42673;BMP280;28284;46.514;30.724;2023-05-10T04:58:19;101536.88;;;26.44
42673;BMP280;28284;46.514;30.724;2023-05-10T05:00:44;101535.41;;;26.66
42673;BMP280;28284;46.514;30.724;2023-05-10T05:03:10;101534.16;;;26.76
42673;BMP280;28284;46.514;30.724;2023-05-10T05:05:35;101531.19;;;27.12
42673;BMP280;28284;46.514;30.724;2023-05-10T05:08:00;101533.63;;;27.42
42673;BMP280;28284;46.514;30.724;2023-05-10T05:10:26;101541.44;;;27.90
42673;BMP280;28284;46.514;30.724;2023-05-10T05:12:51;101537.44;;;27.53
42673;BMP280;28284;46.514;30.724;2023-05-10T05:15:16;101530.38;;;26.47
42673;BMP280;28284;46.514;30.724;2023-05-10T05:17:42;101530.38;;;25.31
42673;BMP280;28284;46.514;30.724;2023-05-10T05:20:08;101522.63;;;24.69
42673;BMP280;28284;46.514;30.724;2023-05-10T05:22:33;101529.34;;;24.59
42673;BMP280;28284;46.514;30.724;2023-05-10T05:24:58;101516.06;;;24.54
42673;BMP280;28284;46.514;30.724;2023-05-10T05:27:24;101525.56;;;24.74
42673;BMP280;28284;46.514;30.724;2023-05-10T05:29:54;101533.16;;;25.31
42673;BMP280;28284;46.514;30.724;2023-05-10T05:32:19;101537.34;;;26.33
42673;BMP280;28284;46.514;30.724;2023-05-10T05:34:45;101538.88;;;26.84
42673;BMP280;28284;46.514;30.724;2023-05-10T05:37:20;101541.41;;;26.73
42673;BMP280;28284;46.514;30.724;2023-05-10T05:39:46;101539.06;;;26.40
42673;BMP280;28284;46.514;30.724;2023-05-10T05:42:12;101545.13;;;26.12
42673;BMP280;28284;46.514;30.724;2023-05-10T05:44:37;101551.44;;;25.94
42673;BMP280;28284;46.514;30.724;2023-05-10T05:47:03;101547.41;;;25.68
42673;BMP280;28284;46.514;30.724;2023-05-10T05:49:28;101549.38;;;25.50
42673;BMP280;28284;46.514;30.724;2023-05-10T05:51:54;101546.59;;;25.41
42673;BMP280;28284;46.514;30.724;2023-05-10T05:54:19;101544.13;;;25.43
42673;BMP280;28284;46.514;30.724;2023-05-10T05:56:44;101544.00;;;25.47
42673;BMP280;28284;46.514;30.724;2023-05-10T05:59:10;101542.28;;;25.49
42673;BMP280;28284;46.514;30.724;2023-05-10T06:01:35;101547.06;;;25.49
42673;BMP280;28284;46.514;30.724;2023-05-10T06:04:00;101552.75;;;25.45
42673;BMP280;28284;46.514;30.724;2023-05-10T06:06:26;101534.28;;;25.51
42673;BMP280;28284;46.514;30.724;2023-05-10T06:08:51;101544.63;;;25.60
42673;BMP280;28284;46.514;30.724;2023-05-10T06:11:17;101534.16;;;25.72
42673;BMP280;28284;46.514;30.724;2023-05-10T06:13:42;101547.44;;;25.95
42673;BMP280;28284;46.514;30.724;2023-05-10T06:16:07;101546.31;;;26.19
42673;BMP280;28284;46.514;30.724;2023-05-10T06:18:33;101542.56;;;26.58
42673;BMP280;28284;46.514;30.724;2023-05-10T06:20:58;101543.44;;;26.64
42673;BMP280;28284;46.514;30.724;2023-05-10T06:23:23;101547.91;;;26.71
42673;BMP280;28284;46.514;30.724;2023-05-10T06:25:50;101539.88;;;27.05
42673;BMP280;28284;46.514;30.724;2023-05-10T06:28:15;101543.63;;;27.48
42673;BMP280;28284;46.514;30.724;2023-05-10T06:30:41;101543.81;;;27.68
42673;BMP280;28284;46.514;30.724;2023-05-10T06:33:06;101545.56;;;27.80
42673;BMP280;28284;46.514;30.724;2023-05-10T06:35:31;101545.56;;;27.94
42673;BMP280;28284;46.514;30.724;2023-05-10T06:37:58;101549.06;;;28.32
42673;BMP280;28284;46.514;30.724;2023-05-10T06:40:23;101547.34;;;28.83
42673;BMP280;28284;46.514;30.724;2023-05-10T06:42:49;101557.13;;;29.67
42673;BMP280;28284;46.514;30.724;2023-05-10T06:45:14;101562.78;;;30.59
42673;BMP280;28284;46.514;30.724;2023-05-10T06:47:40;101571.66;;;31.46
42673;BMP280;28284;46.514;30.724;2023-05-10T06:50:06;101565.38;;;31.95
42673;BMP280;28284;46.514;30.724;2023-05-10T06:52:31;101574.31;;;32.42
42673;BMP280;28284;46.514;30.724;2023-05-10T06:54:56;101558.56;;;32.17
42673;BMP280;28284;46.514;30.724;2023-05-10T06:57:22;101562.63;;;32.27
42673;BMP280;28284;46.514;30.724;2023-05-10T06:59:47;101567.97;;;32.42
42673;BMP280;28284;46.514;30.724;2023-05-10T07:02:13;101571.25;;;32.62
42673;BMP280;28284;46.514;30.724;2023-05-10T07:04:39;101575.31;;;32.61
42673;BMP280;28284;46.514;30.724;2023-05-10T07:07:07;101580.66;;;32.75
42673;BMP280;28284;46.514;30.724;2023-05-10T07:09:32;101581.88;;;32.96
42673;BMP280;28284;46.514;30.724;2023-05-10T07:11:57;101583.47;;;32.75
42673;BMP280;28284;46.514;30.724;2023-05-10T07:14:23;101575.06;;;32.70
42673;BMP280;28284;46.514;30.724;2023-05-10T07:16:48;101582.97;;;32.71
42673;BMP280;28284;46.514;30.724;2023-05-10T07:19:14;101584.50;;;32.56
42673;BMP280;28284;46.514;30.724;2023-05-10T07:21:39;101581.97;;;32.58
42673;BMP280;28284;46.514;30.724;2023-05-10T07:24:07;101585.28;;;32.24
42673;BMP280;28284;46.514;30.724;2023-05-10T07:26:32;101583.13;;;31.48
42673;BMP280;28284;46.514;30.724;2023-05-10T07:28:58;101578.06;;;31.00
42673;BMP280;28284;46.514;30.724;2023-05-10T07:31:23;101578.44;;;30.46
42673;BMP280;28284;46.514;30.724;2023-05-10T07:33:48;101570.09;;;29.95
42673;BMP280;28284;46.514;30.724;2023-05-10T07:36:13;101565.16;;;29.85
42673;BMP280;28284;46.514;30.724;2023-05-10T07:38:39;101573.34;;;29.88
42673;BMP280;28284;46.514;30.724;2023-05-10T07:41:05;101572.44;;;29.77
42673;BMP280;28284;46.514;30.724;2023-05-10T07:43:30;101574.72;;;29.53
42673;BMP280;28284;46.514;30.724;2023-05-10T07:45:56;101577.28;;;29.37
42673;BMP280;28284;46.514;30.724;2023-05-10T07:48:22;101574.34;;;29.06
42673;BMP280;28284;46.514;30.724;2023-05-10T07:50:47;101562.75;;;28.79
42673;BMP280;28284;46.514;30.724;2023-05-10T07:53:13;101573.63;;;28.63
42673;BMP280;28284;46.514;30.724;2023-05-10T07:55:38;101560.38;;;28.43
42673;BMP280;28284;46.514;30.724;2023-05-10T07:58:03;101558.34;;;27.86
42673;BMP280;28284;46.514;30.724;2023-05-10T08:00:29;101559.59;;;27.48
42673;BMP280;28284;46.514;30.724;2023-05-10T08:02:54;101555.75;;;27.36
42673;BMP280;28284;46.514;30.724;2023-05-10T08:05:19;101548.78;;;27.41
42673;BMP280;28284;46.514;30.724;2023-05-10T08:07:45;101544.75;;;27.42
42673;BMP280;28284;46.514;30.724;2023-05-10T08:10:10;101547.38;;;27.45
42673;BMP280;28284;46.514;30.724;2023-05-10T08:12:38;101547.41;;;27.60
42673;BMP280;28284;46.514;30.724;2023-05-10T08:15:04;101548.31;;;27.66
42673;BMP280;28284;46.514;30.724;2023-05-10T08:17:29;101546.34;;;27.57
42673;BMP280;28284;46.514;30.724;2023-05-10T08:19:54;101547.81;;;27.67
42673;BMP280;28284;46.514;30.724;2023-05-10T08:22:20;101553.59;;;27.78
42673;BMP280;28284;46.514;30.724;2023-05-10T08:24:45;101546.69;;;27.73
42673;BMP280;28284;46.514;30.724;2023-05-10T08:27:10;101544.34;;;27.95
42673;BMP280;28284;46.514;30.724;2023-05-10T08:29:36;101551.16;;;28.09
42673;BMP280;28284;46.514;30.724;2023-05-10T08:32:02;101536.00;;;28.10
42673;BMP280;28284;46.514;30.724;2023-05-10T08:34:27;101550.00;;;28.01
42673;BMP280;28284;46.514;30.724;2023-05-10T08:36:52;101540.84;;;27.48
42673;BMP280;28284;46.514;30.724;2023-05-10T08:39:18;101543.41;;;26.82
42673;BMP280;28284;46.514;30.724;2023-05-10T08:41:43;101545.69;;;26.33
42673;BMP280;28284;46.514;30.724;2023-05-10T08:44:09;101543.56;;;25.84
42673;BMP280;28284;46.514;30.724;2023-05-10T08:46:35;101540.00;;;25.57
42673;BMP280;28284;46.514;30.724;2023-05-10T08:49:03;101543.50;;;25.30
42673;BMP280;28284;46.514;30.724;2023-05-10T08:51:29;101537.56;;;25.11
42673;BMP280;28284;46.514;30.724;2023-05-10T08:53:57;101531.50;;;25.03
42673;BMP280;28284;46.514;30.724;2023-05-10T08:56:22;101540.75;;;24.70
42673;BMP280;28284;46.514;30.724;2023-05-10T08:58:48;101539.09;;;23.87
42673;BMP280;28284;46.514;30.724;2023-05-10T09:01:14;101535.84;;;22.93
42673;BMP280;28284;46.514;30.724;2023-05-10T09:03:41;101534.44;;;22.20
42673;BMP280;28284;46.514;30.724;2023-05-10T09:06:07;101537.00;;;21.67
42673;BMP280;28284;46.514;30.724;2023-05-10T09:08:33;101543.28;;;21.00
42673;BMP280;28284;46.514;30.724;2023-05-10T09:10:58;101536.56;;;20.43
42673;BMP280;28284;46.514;30.724;2023-05-10T09:13:25;101534.28;;;19.96
42673;BMP280;28284;46.514;30.724;2023-05-10T09:15:51;101515.81;;;19.74
42673;BMP280;28284;46.514;30.724;2023-05-10T09:18:16;101523.41;;;19.89
42673;BMP280;28284;46.514;30.724;2023-05-10T09:20:42;101518.66;;;19.90
42673;BMP280;28284;46.514;30.724;2023-05-10T09:23:07;101528.09;;;19.89
42673;BMP280;28284;46.514;30.724;2023-05-10T09:25:32;101535.66;;;19.58
42673;BMP280;28284;46.514;30.724;2023-05-10T09:28:02;101539.97;;;19.33
42673;BMP280;28284;46.514;30.724;2023-05-10T09:30:31;101528.44;;;19.15
42673;BMP280;28284;46.514;30.724;2023-05-10T09:32:57;101527.84;;;19.01
42673;BMP280;28284;46.514;30.724;2023-05-10T09:35:27;101516.03;;;19.04
42673;BMP280;28284;46.514;30.724;2023-05-10T09:37:53;101496.47;;;19.02
42673;BMP280;28284;46.514;30.724;2023-05-10T09:40:23;101521.38;;;18.84
42673;BMP280;28284;46.514;30.724;2023-05-10T09:43:01;101504.22;;;18.77
42673;BMP280;28284;46.514;30.724;2023-05-10T09:45:27;101509.31;;;18.78
42673;BMP280;28284;46.514;30.724;2023-05-10T09:47:53;101524.06;;;18.91
42673;BMP280;28284;46.514;30.724;2023-05-10T09:50:18;101519.06;;;19.13
42673;BMP280;28284;46.514;30.724;2023-05-10T09:52:48;101517.34;;;19.22
42673;BMP280;28284;46.514;30.724;2023-05-10T09:55:13;101515.97;;;19.37
42673;BMP280;28284;46.514;30.724;2023-05-10T09:57:39;101512.97;;;19.54
42673;BMP280;28284;46.514;30.724;2023-05-10T10:00:04;101520.94;;;19.72
42673;BMP280;28284;46.514;30.724;2023-05-10T10:02:30;101523.88;;;19.84
42673;BMP280;28284;46.514;30.724;2023-05-10T10:04:56;101517.63;;;19.80
42673;BMP280;28284;46.514;30.724;2023-05-10T10:07:25;101515.53;;;19.88
42673;BMP280;28284;46.514;30.724;2023-05-10T10:09:51;101518.59;;;20.16
42673;BMP280;28284;46.514;30.724;2023-05-10T10:12:16;101532.63;;;20.44
42673;BMP280;28284;46.514;30.724;2023-05-10T10:14:42;101545.78;;;20.53
42673;BMP280;28284;46.514;30.724;2023-05-10T10:17:08;101538.84;;;20.25
42673;BMP280;28284;46.514;30.724;2023-05-10T10:19:34;101536.53;;;19.78
42673;BMP280;28284;46.514;30.724;2023-05-10T10:22:00;101543.69;;;19.46
42673;BMP280;28284;46.514;30.724;2023-05-10T10:24:25;101539.88;;;19.40
42673;BMP280;28284;46.514;30.724;2023-05-10T10:26:51;101541.56;;;19.31
42673;BMP280;28284;46.514;30.724;2023-05-10T10:29:25;101531.00;;;19.29
42673;BMP280;28284;46.514;30.724;2023-05-10T10:34:26;101551.19;;;19.16
42673;BMP280;28284;46.514;30.724;2023-05-10T10:36:52;101556.00;;;19.08
42673;BMP280;28284;46.514;30.724;2023-05-10T10:39:18;101556.22;;;18.91
42673;BMP280;28284;46.514;30.724;2023-05-10T10:41:52;101552.56;;;18.64
42673;BMP280;28284;46.514;30.724;2023-05-10T10:44:23;101555.41;;;18.54
42673;BMP280;28284;46.514;30.724;2023-05-10T10:49:37;101568.41;;;18.50
42673;BMP280;28284;46.514;30.724;2023-05-10T10:52:13;101558.25;;;18.47
42673;BMP280;28284;46.514;30.724;2023-05-10T10:54:39;101546.44;;;18.50
42673;BMP280;28284;46.514;30.724;2023-05-10T10:57:13;101567.47;;;18.63
42673;BMP280;28284;46.514;30.724;2023-05-10T10:59:42;101554.94;;;18.66
42673;BMP280;28284;46.514;30.724;2023-05-10T11:02:08;101555.81;;;18.89
42673;BMP280;28284;46.514;30.724;2023-05-10T11:04:43;101566.97;;;19.08
42673;BMP280;28284;46.514;30.724;2023-05-10T11:07:17;101558.03;;;19.34
42673;BMP280;28284;46.514;30.724;2023-05-10T11:09:43;101555.88;;;19.48
42673;BMP280;28284;46.514;30.724;2023-05-10T11:12:08;101559.59;;;19.61
42673;BMP280;28284;46.514;30.724;2023-05-10T11:14:34;101562.22;;;19.68
42673;BMP280;28284;46.514;30.724;2023-05-10T11:16:59;101555.63;;;19.62
42673;BMP280;28284;46.514;30.724;2023-05-10T11:19:27;101563.34;;;19.44
42673;BMP280;28284;46.514;30.724;2023-05-10T11:24:30;101555.31;;;19.31
42673;BMP280;28284;46.514;30.724;2023-05-10T11:26:56;101546.56;;;19.39
42673;BMP280;28284;46.514;30.724;2023-05-10T11:29:21;101543.94;;;19.29
42673;BMP280;28284;46.514;30.724;2023-05-10T11:31:47;101555.16;;;19.15
42673;BMP280;28284;46.514;30.724;2023-05-10T11:34:33;101548.94;;;19.07
42673;BMP280;28284;46.514;30.724;2023-05-10T11:36:59;101541.25;;;18.95
42673;BMP280;28284;46.514;30.724;2023-05-10T11:39:31;101546.97;;;18.78
42673;BMP280;28284;46.514;30.724;2023-05-10T11:41:57;101545.81;;;18.72
42673;BMP280;28284;46.514;30.724;2023-05-10T11:44:22;101535.25;;;18.74
42673;BMP280;28284;46.514;30.724;2023-05-10T11:46:48;101543.53;;;18.71
42673;BMP280;28284;46.514;30.724;2023-05-10T11:49:13;101547.09;;;18.64
42673;BMP280;28284;46.514;30.724;2023-05-10T11:51:39;101540.78;;;18.67
42673;BMP280;28284;46.514;30.724;2023-05-10T11:54:08;101551.00;;;18.67
42673;BMP280;28284;46.514;30.724;2023-05-10T11:56:34;101543.59;;;18.64
42673;BMP280;28284;46.514;30.724;2023-05-10T11:58:59;101532.59;;;18.64
42673;BMP280;28284;46.514;30.724;2023-05-10T12:01:26;101524.47;;;18.57
42673;BMP280;28284;46.514;30.724;2023-05-10T12:03:53;101532.78;;;18.46
42673;BMP280;28284;46.514;30.724;2023-05-10T12:06:18;101533.00;;;18.25
42673;BMP280;28284;46.514;30.724;2023-05-10T12:08:45;101522.91;;;18.15
42673;BMP280;28284;46.514;30.724;2023-05-10T12:11:11;101525.25;;;18.13
42673;BMP280;28284;46.514;30.724;2023-05-10T12:13:37;101522.47;;;18.20
42673;BMP280;28284;46.514;30.724;2023-05-10T12:16:13;101520.47;;;18.24
42673;BMP280;28284;46.514;30.724;2023-05-10T12:18:40;101522.38;;;18.27
42673;BMP280;28284;46.514;30.724;2023-05-10T12:21:05;101525.91;;;18.28
42673;BMP280;28284;46.514;30.724;2023-05-10T12:23:30;101530.16;;;18.32
42673;BMP280;28284;46.514;30.724;2023-05-10T12:26:01;101524.31;;;18.34
42673;BMP280;28284;46.514;30.724;2023-05-10T12:28:26;101514.44;;;18.36
42673;BMP280;28284;46.514;30.724;2023-05-10T12:30:54;101516.81;;;18.38
42673;BMP280;28284;46.514;30.724;2023-05-10T12:33:20;101513.31;;;18.37
42673;BMP280;28284;46.514;30.724;2023-05-10T12:35:49;101510.19;;;18.32
42673;BMP280;28284;46.514;30.724;2023-05-10T12:40:50;101503.63;;;18.26
42673;BMP280;28284;46.514;30.724;2023-05-10T12:43:15;101504.41;;;18.26
42673;BMP280;28284;46.514;30.724;2023-05-10T12:45:40;101501.69;;;18.23
42673;BMP280;28284;46.514;30.724;2023-05-10T12:48:05;101510.38;;;18.14
42673;BMP280;28284;46.514;30.724;2023-05-10T12:50:31;101503.50;;;17.96
42673;BMP280;28284;46.514;30.724;2023-05-10T12:52:56;101492.97;;;17.88
42673;BMP280;28284;46.514;30.724;2023-05-10T12:55:21;101491.81;;;17.85
42673;BMP280;28284;46.514;30.724;2023-05-10T12:57:46;101490.25;;;17.88
42673;BMP280;28284;46.514;30.724;2023-05-10T13:00:12;101486.31;;;17.92
42673;BMP280;28284;46.514;30.724;2023-05-10T13:02:37;101490.16;;;17.95
42673;BMP280;28284;46.514;30.724;2023-05-10T13:05:03;101489.78;;;17.96
42673;BMP280;28284;46.514;30.724;2023-05-10T13:07:28;101490.16;;;17.98
42673;BMP280;28284;46.514;30.724;2023-05-10T13:09:53;101483.47;;;18.03
42673;BMP280;28284;46.514;30.724;2023-05-10T13:12:19;101486.09;;;18.16
42673;BMP280;28284;46.514;30.724;2023-05-10T13:14:44;101488.72;;;18.27
42673;BMP280;28284;46.514;30.724;2023-05-10T13:17:09;101489.09;;;18.29
42673;BMP280;28284;46.514;30.724;2023-05-10T13:19:35;101485.16;;;18.30
42673;BMP280;28284;46.514;30.724;2023-05-10T13:22:00;101480.03;;;18.32
42673;BMP280;28284;46.514;30.724;2023-05-10T13:24:25;101481.59;;;18.33
42673;BMP280;28284;46.514;30.724;2023-05-10T13:26:51;101482.34;;;18.37
42673;BMP280;28284;46.514;30.724;2023-05-10T13:29:16;101490.94;;;18.35
42673;BMP280;28284;46.514;30.724;2023-05-10T13:31:43;101491.75;;;18.39
42673;BMP280;28284;46.514;30.724;2023-05-10T13:34:08;101483.81;;;18.45
42673;BMP280;28284;46.514;30.724;2023-05-10T13:36:33;101497.50;;;18.48
42673;BMP280;28284;46.514;30.724;2023-05-10T13:38:58;101486.44;;;18.55
42673;BMP280;28284;46.514;30.724;2023-05-10T13:41:26;101489.13;;;18.62
42673;BMP280;28284;46.514;30.724;2023-05-10T13:43:52;101482.41;;;18.63
42673;BMP280;28284;46.514;30.724;2023-05-10T13:46:17;101488.75;;;18.60
42673;BMP280;28284;46.514;30.724;2023-05-10T13:48:43;101493.09;;;18.58
42673;BMP280;28284;46.514;30.724;2023-05-10T13:51:08;101492.81;;;18.45
42673;BMP280;28284;46.514;30.724;2023-05-10T13:53:33;101490.31;;;18.24
42673;BMP280;28284;46.514;30.724;2023-05-10T13:55:58;101490.53;;;18.00
42673;BMP280;28284;46.514;30.724;2023-05-10T13:58:24;101489.84;;;17.86
42673;BMP280;28284;46.514;30.724;2023-05-10T14:00:49;101487.56;;;17.77
42673;BMP280;28284;46.514;30.724;2023-05-10T14:03:14;101489.19;;;17.71
42673;BMP280;28284;46.514;30.724;2023-05-10T14:05:39;101481.03;;;17.64
42673;BMP280;28284;46.514;30.724;2023-05-10T14:08:05;101483.03;;;17.60
42673;BMP280;28284;46.514;30.724;2023-05-10T14:10:30;101484.63;;;17.54